Time;durP1;ratioP1;P1;durP2;ratioP2;P2;SDS_P1;SDS_P2;PMS_P1;PMS_P2;Temp;Humidity;BMP_temperature;BMP_pressure;BME280_temperature;BME280_humidity;BME280_pressure;Samples;Min_cycle;Max_cycle;Signal;HPM_P1;HPM_P2
2021/03/19 00:00:16;;;;;;;28.00;13.57;;;128.20;2252.80;;;;;;5046842;28;20109;-79
2021/03/19 00:02:42;;;;;;;23.38;13.88;;;128.30;2252.80;;;;;;5033503;28;20029;-79
2021/03/19 00:05:11;;;;;;;25.42;13.65;;;128.30;2252.80;;;;;;5043592;28;20488;-79
2021/03/19 00:07:48;;;;;;;28.02;14.45;;;128.40;2252.80;;;;;;5039187;28;20049;-79
2021/03/19 00:10:17;;;;;;;23.88;13.75;;;128.20;2252.80;;;;;;5024114;28;20071;-80
2021/03/19 00:12:48;;;;;;;25.08;13.93;;;128.30;2252.80;;;;;;5054334;28;20068;-80
2021/03/19 00:15:19;;;;;;;22.75;13.32;;;128.40;2252.80;;;;;;5036144;28;20025;-80
2021/03/19 00:17:44;;;;;;;26.65;15.05;;;128.40;2252.80;;;;;;5044543;28;20033;-80
2021/03/19 00:20:10;;;;;;;;;;;128.30;2252.80;;;;;;5045130;28;20052;-80
2021/03/19 00:22:37;;;;;;;25.98;14.10;;;128.20;2252.80;;;;;;5031476;28;19912;-80
2021/03/19 00:25:04;;;;;;;28.27;15.98;;;128.20;2252.80;;;;;;5046720;28;20033;-80
2021/03/19 00:27:30;;;;;;;31.85;17.05;;;128.40;2252.80;;;;;;5045424;28;20056;-79
2021/03/19 00:29:56;;;;;;;26.60;14.45;;;128.50;2252.80;;;;;;5045888;28;20033;-79
2021/03/19 00:32:22;;;;;;;;;;;128.50;2252.80;;;;;;5042807;28;20484;-79
2021/03/19 00:34:47;;;;;;;30.90;16.27;;;128.40;2252.80;;;;;;5029546;28;19905;-81
2021/03/19 00:37:13;;;;;;;;;;;128.50;2252.80;;;;;;5050018;28;20021;-79
2021/03/19 00:39:39;;;;;;;31.92;15.98;;;128.50;2252.80;;;;;;5048223;28;19913;-80
2021/03/19 00:42:06;;;;;;;28.90;16.25;;;128.50;2252.80;;;;;;5050027;28;20041;-79
2021/03/19 00:44:32;;;;;;;28.65;16.05;;;128.40;2252.80;;;;;;5053560;28;20044;-80
2021/03/19 00:46:58;;;;;;;27.38;16.25;;;128.30;2252.80;;;;;;5048036;28;20473;-80
2021/03/19 00:49:24;;;;;;;29.42;16.13;;;128.30;2252.80;;;;;;5033216;28;20024;-79
2021/03/19 00:51:49;;;;;;;;;;;128.40;2252.80;;;;;;5052430;28;20416;-81
2021/03/19 00:54:15;;;;;;;30.92;16.38;;;128.30;2252.80;;;;;;5066126;28;19916;-81
2021/03/19 00:56:41;;;;;;;;;;;128.40;2252.80;;;;;;5051865;28;20034;-80
2021/03/19 00:59:07;;;;;;;32.20;16.55;;;128.30;2252.80;;;;;;5056988;28;19905;-80
2021/03/19 01:01:36;;;;;;;;;;;128.40;2252.80;;;;;;5048750;28;20014;-80
2021/03/19 01:04:06;;;;;;;25.88;14.93;;;128.30;2252.80;;;;;;5034499;28;19912;-79
2021/03/19 01:06:32;;;;;;;31.88;16.80;;;128.30;2252.80;;;;;;5049404;28;20051;-80
2021/03/19 01:08:58;;;;;;;;;;;128.30;2252.80;;;;;;5051379;28;20477;-80
2021/03/19 01:11:25;;;;;;;26.92;14.90;;;128.40;2252.80;;;;;;5050633;28;19935;-79
2021/03/19 01:13:51;;;;;;;27.45;15.40;;;128.30;2252.80;;;;;;5046666;28;20399;-80
2021/03/19 01:16:17;;;;;;;26.23;15.20;;;128.30;2252.80;;;;;;5048948;28;20017;-80
2021/03/19 01:18:42;;;;;;;;;;;128.40;2252.80;;;;;;5049580;28;20071;-79
2021/03/19 01:21:09;;;;;;;28.17;15.73;;;128.40;2252.80;;;;;;5049684;28;19905;-81
2021/03/19 01:23:35;;;;;;;27.70;15.63;;;128.30;2252.80;;;;;;5052072;28;20013;-80
2021/03/19 01:26:00;;;;;;;26.85;14.85;;;128.40;2252.80;;;;;;5048397;28;20116;-79
2021/03/19 01:28:26;;;;;;;;;;;128.30;2252.80;;;;;;5047489;28;20029;-80
2021/03/19 01:30:52;;;;;;;26.90;16.05;;;128.20;2252.80;;;;;;5047902;28;20418;-79
2021/03/19 01:33:18;;;;;;;26.77;15.10;;;128.30;2252.80;;;;;;5049114;28;20025;-80
2021/03/19 01:35:44;;;;;;;;;;;128.20;2252.80;;;;;;5047069;28;20034;-80
2021/03/19 01:38:11;;;;;;;26.23;14.93;;;128.20;2252.80;;;;;;5051463;28;19959;-81
2021/03/19 01:40:44;;;;;;;25.08;14.80;;;128.20;2252.80;;;;;;5045023;28;20032;-78
2021/03/19 01:43:15;;;;;;;23.77;13.68;;;128.30;2252.80;;;;;;5028136;28;20040;-78
2021/03/19 01:46:18;;;;;;;21.23;13.23;;;128.30;2252.80;;;;;;5037916;28;20017;-79
2021/03/19 01:49:24;;;;;;;26.58;14.98;;;128.20;2252.80;;;;;;5046208;28;20107;-78
2021/03/19 01:52:27;;;;;;;28.33;13.93;;;128.40;2252.80;;;;;;5047108;28;20013;-78
2021/03/19 01:55:30;;;;;;;30.80;15.95;;;128.30;2252.80;;;;;;5047245;28;20017;-78
2021/03/19 01:58:33;;;;;;;28.65;16.27;;;128.40;2252.80;;;;;;5046985;28;20029;-78
2021/03/19 02:01:37;;;;;;;26.73;13.80;;;128.50;2252.80;;;;;;5046903;28;20384;-78
2021/03/19 02:04:40;;;;;;;23.27;12.82;;;128.60;2252.80;;;;;;5030421;28;20013;-78
2021/03/19 02:07:43;;;;;;;23.35;13.07;;;128.50;2252.80;;;;;;5036000;28;20013;-78
2021/03/19 02:10:46;;;;;;;22.63;11.95;;;128.40;2252.80;;;;;;5045509;28;20064;-78
2021/03/19 02:13:49;;;;;;;23.73;13.73;;;128.40;2252.80;;;;;;5043606;28;20416;-78
2021/03/19 02:16:52;;;;;;;25.60;13.65;;;128.40;2252.80;;;;;;5043364;28;20048;-78
2021/03/19 02:19:55;;;;;;;22.83;12.75;;;128.50;2252.80;;;;;;5046684;28;20028;-79
2021/03/19 02:22:59;;;;;;;24.92;13.23;;;128.60;2252.80;;;;;;5047179;28;20031;-78
2021/03/19 02:26:02;;;;;;;23.55;13.63;;;128.60;2252.80;;;;;;5047639;28;20407;-78
2021/03/19 02:29:05;;;;;;;22.25;12.90;;;128.50;2252.80;;;;;;5046413;28;20017;-79
2021/03/19 02:31:52;;;;;;;25.77;13.23;;;128.60;2252.80;;;;;;5045228;28;20021;-78
2021/03/19 02:34:18;;;;;;;24.25;13.52;;;128.60;2252.80;;;;;;5046023;28;20028;-78
2021/03/19 02:36:44;;;;;;;21.75;13.93;;;128.70;2252.80;;;;;;5045413;28;20048;-79
2021/03/19 02:39:10;;;;;;;;;;;128.70;2252.80;;;;;;5044101;28;20465;-78
2021/03/19 02:41:36;;;;;;;24.40;13.15;;;128.70;2252.80;;;;;;5043363;28;19921;-78
2021/03/19 02:44:01;;;;;;;;;;;128.50;2252.80;;;;;;5043836;28;20370;-78
2021/03/19 02:46:27;;;;;;;22.13;12.18;;;128.40;2252.80;;;;;;5044186;28;19908;-78
2021/03/19 02:48:53;;;;;;;26.92;15.07;;;128.40;2252.80;;;;;;5042044;28;20408;-79
2021/03/19 02:51:18;;;;;;;;;;;128.40;2252.80;;;;;;5046811;28;20037;-79
2021/03/19 02:53:45;;;;;;;24.38;14.15;;;128.40;2252.80;;;;;;5045425;28;19936;-79
2021/03/19 02:56:11;;;;;;;25.00;13.98;;;128.40;2252.80;;;;;;5027611;28;20013;-79
2021/03/19 02:58:37;;;;;;;24.55;13.45;;;128.30;2252.80;;;;;;5046451;28;20055;-78
2021/03/19 03:01:06;;;;;;;24.90;14.05;;;128.30;2252.80;;;;;;5043565;28;20101;-78
2021/03/19 03:03:33;;;;;;;24.10;14.13;;;128.40;2252.80;;;;;;5045603;28;20529;-78
2021/03/19 03:05:59;;;;;;;24.17;14.13;;;128.20;2252.80;;;;;;5043261;28;20112;-78
2021/03/19 03:08:25;;;;;;;32.55;15.55;;;128.30;2252.80;;;;;;5044133;28;20081;-78
2021/03/19 03:10:53;;;;;;;;;;;128.20;2252.80;;;;;;5025055;28;20036;-78
2021/03/19 03:13:19;;;;;;;30.38;15.15;;;128.30;2252.80;;;;;;5048329;28;19912;-78
2021/03/19 03:15:45;;;;;;;;;;;128.20;2252.80;;;;;;5045519;28;20033;-78
2021/03/19 03:18:11;;;;;;;25.95;14.10;;;128.30;2252.80;;;;;;5025318;28;19905;-79
2021/03/19 03:20:46;;;;;;;25.05;13.68;;;128.30;2252.80;;;;;;5044753;28;20029;-78
2021/03/19 03:23:13;;;;;;;26.90;15.88;;;128.30;2252.80;;;;;;5043802;28;20025;-78
2021/03/19 03:25:39;;;;;;;29.10;15.43;;;128.20;2252.80;;;;;;5045591;28;20527;-78
2021/03/19 03:28:05;;;;;;;;;;;128.20;2252.80;;;;;;5027157;28;20041;-78
2021/03/19 03:30:39;;;;;;;31.63;15.13;;;128.30;2252.80;;;;;;5045583;28;20022;-78
2021/03/19 03:33:05;;;;;;;28.98;15.57;;;128.30;2252.80;;;;;;5045977;28;20037;-78
2021/03/19 03:35:32;;;;;;;25.83;16.15;;;128.40;2252.80;;;;;;5044799;28;20052;-78
2021/03/19 03:40:46;;;;;;;27.20;14.82;;;128.40;2252.80;;;;;;5169130;22;20056;-79
2021/03/19 03:43:14;;;;;;;31.55;16.27;;;128.40;2252.80;;;;;;5047307;28;20024;-78
2021/03/19 03:45:42;;;;;;;28.73;15.32;;;128.40;2252.80;;;;;;5041903;28;20020;-79
2021/03/19 03:48:10;;;;;;;27.92;16.08;;;128.40;2252.80;;;;;;5034244;28;20049;-78
2021/03/19 03:50:36;;;;;;;29.40;15.73;;;128.30;2252.80;;;;;;5036529;28;20063;-78
2021/03/19 03:53:02;;;;;;;29.80;15.32;;;128.30;2252.80;;;;;;5019890;28;20036;-78
2021/03/19 03:55:28;;;;;;;31.00;16.45;;;128.40;2252.80;;;;;;5035610;28;20021;-78
2021/03/19 03:57:54;;;;;;;30.10;16.15;;;128.50;2252.80;;;;;;5036436;28;20033;-79
2021/03/19 04:00:21;;;;;;;;;;;128.50;2252.80;;;;;;5036634;28;20010;-78
2021/03/19 04:02:47;;;;;;;25.92;15.05;;;128.40;2252.80;;;;;;5019739;28;19953;-79
2021/03/19 04:05:21;;;;;;;27.08;15.43;;;128.30;2252.80;;;;;;5052386;28;20025;-78
2021/03/19 04:07:46;;;;;;;26.08;16.25;;;128.40;2252.80;;;;;;5038652;28;20033;-78
2021/03/19 04:10:12;;;;;;;26.85;15.23;;;128.30;2252.80;;;;;;5047829;28;20047;-79
2021/03/19 04:12:38;;;;;;;23.58;14.48;;;128.30;2252.80;;;;;;5025566;28;20048;-78
2021/03/19 04:15:05;;;;;;;33.22;17.58;;;128.30;2252.80;;;;;;5027085;28;20399;-78
2021/03/19 04:17:32;;;;;;;28.10;15.13;;;128.40;2252.80;;;;;;5027301;28;20435;-78
2021/03/19 04:19:59;;;;;;;28.00;15.45;;;128.40;2252.80;;;;;;5046660;28;20018;-78
2021/03/19 04:22:26;;;;;;;29.38;15.32;;;128.20;2252.80;;;;;;5044383;28;20187;-78
2021/03/19 04:24:54;;;;;;;27.85;14.23;;;128.60;2252.80;;;;;;5042785;28;20021;-78
2021/03/19 04:27:23;;;;;;;27.10;15.07;;;128.40;2252.80;;;;;;5033423;28;20049;-78
2021/03/19 04:29:50;;;;;;;27.13;15.38;;;128.40;2252.80;;;;;;5044184;28;20018;-78
2021/03/19 04:32:15;;;;;;;24.98;15.35;;;128.30;2252.80;;;;;;5041378;28;20072;-78
2021/03/19 04:34:41;;;;;;;27.08;16.38;;;128.30;2252.80;;;;;;5042785;28;20029;-78
2021/03/19 04:37:08;;;;;;;;;;;128.30;2252.80;;;;;;5041205;28;20029;-78
2021/03/19 04:39:40;;;;;;;29.48;13.85;;;128.20;2252.80;;;;;;5026939;28;20361;-78
2021/03/19 04:42:07;;;;;;;30.73;15.65;;;128.00;2252.80;;;;;;5040931;28;20029;-79
2021/03/19 04:44:38;;;;;;;64.72;25.88;;;103.20;2227.20;;;;;;5042147;28;20021;-78
2021/03/19 04:47:05;;;;;;;55.40;22.65;;;128.00;2252.80;;;;;;5031633;28;20063;-78
2021/03/19 04:49:32;;;;;;;48.40;23.20;;;103.30;2227.20;;;;;;5043039;28;20049;-78
2021/03/19 04:51:58;;;;;;;39.22;20.17;;;103.30;2227.20;;;;;;5024999;28;20492;-78
2021/03/19 04:54:24;;;;;;;45.60;22.00;;;103.10;2227.20;;;;;;5045120;28;20033;-77
2021/03/19 04:56:50;;;;;;;37.03;18.90;;;102.90;2227.20;;;;;;5043476;28;20040;-78
2021/03/19 04:59:16;;;;;;;;;;;102.90;2227.20;;;;;;5044638;28;20036;-78
2021/03/19 05:01:57;;;;;;;37.20;19.42;;;102.80;2227.20;;;;;;5042417;28;19983;-80
2021/03/19 05:04:24;;;;;;;43.75;23.42;;;102.90;2227.20;;;;;;5044446;28;20021;-78
2021/03/19 05:06:54;;;;;;;40.60;20.80;;;103.00;2227.20;;;;;;5043633;28;20034;-79
2021/03/19 05:09:20;;;;;;;34.05;20.55;;;103.20;2227.20;;;;;;5024600;28;20025;-78
2021/03/19 05:11:47;;;;;;;39.38;21.77;;;103.30;2227.20;;;;;;5025814;28;20025;-78
2021/03/19 05:14:13;;;;;;;51.80;28.42;;;103.10;2227.20;;;;;;5041735;28;20022;-79
2021/03/19 05:16:39;;;;;;;46.67;23.83;;;103.10;2227.20;;;;;;5025926;28;20025;-78
2021/03/19 05:19:05;;;;;;;;;;;102.90;2227.20;;;;;;5043998;28;20025;-78
2021/03/19 05:21:31;;;;;;;46.78;25.27;;;102.70;2227.20;;;;;;5044846;28;20353;-79
2021/03/19 05:23:56;;;;;;;;;;;102.70;2227.20;;;;;;5046930;28;20040;-78
2021/03/19 05:26:22;;;;;;;40.65;21.77;;;102.80;2227.20;;;;;;5030790;28;19905;-78
2021/03/19 05:28:47;;;;;;;;;;;102.70;2227.20;;;;;;5047173;28;20041;-78
2021/03/19 05:31:13;;;;;;;37.97;19.50;;;102.50;2227.20;;;;;;5049054;28;20038;-79
2021/03/19 05:33:43;;;;;;;;;;;102.60;2227.20;;;;;;5042366;28;20013;-80
2021/03/19 05:36:10;;;;;;;42.33;22.00;;;102.70;2227.20;;;;;;5028916;28;20268;-80
2021/03/19 05:38:36;;;;;;;41.85;22.48;;;102.50;2227.20;;;;;;5035823;28;20036;-80
2021/03/19 05:41:05;;;;;;;45.83;23.67;;;102.80;2227.20;;;;;;5041828;28;20025;-81
2021/03/19 05:43:36;;;;;;;46.15;23.13;;;102.80;2227.20;;;;;;5014541;28;20025;-82
2021/03/19 05:46:14;;;;;;;48.90;25.38;;;103.00;2227.20;;;;;;5064197;28;20021;-80
2021/03/19 05:48:57;;;;;;;44.47;23.60;;;103.20;2227.20;;;;;;5045207;28;20035;-81
2021/03/19 05:51:40;;;;;;;39.88;22.17;;;128.00;2252.80;;;;;;5058192;28;20021;-81
2021/03/19 05:54:17;;;;;;;45.75;24.13;;;128.00;2252.80;;;;;;5043175;28;20029;-78
2021/03/19 05:56:44;;;;;;;42.63;23.58;;;128.10;2252.80;;;;;;5046243;28;20029;-79
2021/03/19 05:59:10;;;;;;;45.15;25.58;;;128.10;2252.80;;;;;;5058416;28;20057;-79
2021/03/19 06:01:38;;;;;;;48.78;25.65;;;128.20;2252.80;;;;;;5036397;28;20048;-79
2021/03/19 06:04:04;;;;;;;47.78;24.30;;;103.30;2227.20;;;;;;5048703;28;20028;-80
2021/03/19 06:06:48;;;;;;;47.38;26.20;;;103.20;2227.20;;;;;;5049928;28;20033;-79
2021/03/19 06:09:35;;;;;;;57.88;29.77;;;103.20;2227.20;;;;;;5046960;28;20074;-79
2021/03/19 06:12:25;;;;;;;61.40;32.20;;;103.10;2227.20;;;;;;5046640;28;20469;-80
2021/03/19 06:14:56;;;;;;;56.45;30.98;;;102.80;2227.20;;;;;;5048201;28;20044;-80
2021/03/19 06:17:27;;;;;;;49.33;26.13;;;103.00;2227.20;;;;;;5031131;28;20043;-80
2021/03/19 06:20:06;;;;;;;41.47;22.67;;;128.00;2252.80;;;;;;5048053;28;19997;-80
2021/03/19 06:22:38;;;;;;;45.60;24.13;;;128.10;2252.80;;;;;;5050130;28;20465;-79
2021/03/19 06:25:21;;;;;;;41.33;23.30;;;128.10;2252.80;;;;;;5045281;28;20036;-79
2021/03/19 06:27:57;;;;;;;41.80;22.08;;;128.30;2252.80;;;;;;5053306;28;20101;-82
2021/03/19 06:30:26;;;;;;;38.67;19.15;;;128.40;2252.80;;;;;;5046895;28;20017;-79
2021/03/19 06:33:12;;;;;;;54.63;28.48;;;128.10;2252.80;;;;;;5044510;28;20054;-79
2021/03/19 06:35:44;;;;;;;47.17;23.73;;;128.10;2252.80;;;;;;5053244;28;20059;-80
2021/03/19 06:38:38;;;;;;;41.92;24.20;;;128.50;2252.80;;;;;;5038263;28;20074;-81
2021/03/19 06:41:14;;;;;;;46.75;26.05;;;128.70;2252.80;;;;;;5039585;28;20040;-80
2021/03/19 06:43:40;;;;;;;40.28;22.13;;;153.60;2252.80;;;;;;5038549;28;20037;-80
2021/03/19 06:46:10;;;;;;;;;;;128.90;2252.80;;;;;;5038696;28;20032;-80
2021/03/19 06:48:41;;;;;;;33.97;19.77;;;153.60;2252.80;;;;;;5039223;28;19916;-83
2021/03/19 06:51:30;;;;;;;35.47;18.98;;;153.60;2150.40;;;;;;5045338;28;20017;-82
2021/03/19 06:54:03;;;;;;;33.47;17.17;;;153.70;2099.20;;;;;;5028056;28;20036;-81
2021/03/19 06:56:29;;;;;;;36.03;19.08;;;153.70;2073.60;;;;;;5056667;28;20480;-79
2021/03/19 06:58:55;;;;;;;24.38;14.30;;;128.90;2099.20;;;;;;5057319;28;20021;-79
2021/03/19 07:01:24;;;;;;;25.45;14.20;;;128.70;2048.00;;;;;;5038059;28;20029;-78
2021/03/19 07:03:50;;;;;;;24.10;13.23;;;128.70;2048.00;;;;;;5055378;28;20025;-79
2021/03/19 07:06:46;;;;;;;25.55;13.05;;;153.60;1945.60;;;;;;5037568;28;20362;-79
2021/03/19 07:09:35;;;;;;;25.47;13.13;;;128.90;1868.80;;;;;;5036969;28;20048;-78
2021/03/19 07:12:29;;;;;;;22.08;12.15;;;153.70;1868.80;;;;;;5035966;28;20622;-78
2021/03/19 07:15:21;;;;;;;19.17;11.30;;;153.80;1894.40;;;;;;5033135;28;20568;-83
2021/03/19 07:18:05;;;;;;;22.50;11.85;;;128.80;1868.80;;;;;;5027564;28;20029;-78
2021/03/19 07:20:46;;;;;;;23.90;11.23;;;128.90;1843.20;;;;;;5031932;28;20025;-77
2021/03/19 07:23:17;;;;;;;18.63;10.98;;;153.70;1843.20;;;;;;5015156;28;20029;-78
2021/03/19 07:26:02;;;;;;;27.70;13.65;;;128.90;1843.20;;;;;;5018484;28;20061;-79
2021/03/19 07:28:33;;;;;;;20.35;11.20;;;128.80;1843.20;;;;;;5046184;28;20024;-79
2021/03/19 07:31:17;;;;;;;21.73;12.27;;;128.70;1868.80;;;;;;5047415;28;20029;-79
2021/03/19 07:34:16;;;;;;;22.52;11.77;;;128.70;1868.80;;;;;;5035680;28;20045;-79
2021/03/19 07:37:27;;;;;;;23.85;12.90;;;128.70;1817.60;;;;;;5052711;28;20033;-80
2021/03/19 07:40:28;;;;;;;26.77;12.55;;;128.60;1920.00;;;;;;5032212;28;20508;-78
2021/03/19 07:43:12;;;;;;;27.42;13.93;;;128.40;1971.20;;;;;;5034616;28;20440;-78
2021/03/19 07:45:50;;;;;;;23.67;11.65;;;128.60;1971.20;;;;;;5035155;28;20481;-80
2021/03/19 07:48:19;;;;;;;19.33;10.70;;;128.70;1971.20;;;;;;5052834;28;20025;-78
2021/03/19 07:51:02;;;;;;;20.80;10.70;;;128.70;1945.60;;;;;;5035872;28;20408;-79
2021/03/19 07:54:10;;;;;;;21.67;13.20;;;153.60;1920.00;;;;;;5052547;28;20116;-81
2021/03/19 07:56:46;;;;;;;24.25;13.23;;;153.70;1971.20;;;;;;4953079;29;20055;-80
2021/03/19 07:59:30;;;;;;;27.00;10.07;;;128.90;1971.20;;;;;;4952639;29;20138;-78
2021/03/19 08:02:08;;;;;;;25.38;13.13;;;128.70;2022.40;;;;;;4952663;29;20050;-79
2021/03/19 08:04:45;;;;;;;20.05;11.40;;;128.90;2073.60;;;;;;4953186;29;20547;-79
2021/03/19 08:07:26;;;;;;;16.58;10.65;;;153.60;2073.60;;;;;;4952389;29;20419;-79
2021/03/19 08:10:03;;;;;;;21.42;11.95;;;153.60;2048.00;;;;;;4954941;29;20101;-80
2021/03/19 08:12:37;;;;;;;19.83;11.05;;;153.70;2022.40;;;;;;4954221;29;20047;-81
2021/03/19 08:15:20;;;;;;;15.07;10.30;;;153.80;1996.80;;;;;;4955572;29;20043;-83
2021/03/19 08:17:57;;;;;;;18.10;11.15;;;153.80;1971.20;;;;;;4953217;29;20114;-82
2021/03/19 08:20:38;;;;;;;18.90;11.00;;;153.90;1996.80;;;;;;4941398;29;20043;-86
2021/03/19 08:23:32;;;;;;;20.13;11.18;;;154.10;1894.40;;;;;;5038253;22;20057;-83
2021/03/19 08:25:59;;;;;;;28.35;14.77;;;154.30;1920.00;;;;;;5012276;28;20041;-83
2021/03/19 08:28:27;;;;;;;23.35;12.10;;;154.30;1971.20;;;;;;5028063;28;20022;-84
2021/03/19 08:31:21;;;;;;;23.00;12.32;;;154.20;1894.40;;;;;;5034261;28;20014;-82
2021/03/19 08:33:58;;;;;;;19.67;11.38;;;154.20;1920.00;;;;;;5032417;28;20034;-84
2021/03/19 08:36:36;;;;;;;19.15;11.55;;;154.40;1894.40;;;;;;5032493;28;20448;-80
2021/03/19 08:39:29;;;;;;;18.88;10.95;;;154.40;1843.20;;;;;;5032173;28;20029;-84
2021/03/19 08:42:03;;;;;;;24.05;11.73;;;154.10;1868.80;;;;;;5033004;28;20026;-81
2021/03/19 08:44:34;;;;;;;17.27;10.23;;;153.80;1945.60;;;;;;5020868;28;20063;-82
2021/03/19 08:47:20;;;;;;;21.85;10.65;;;153.60;1971.20;;;;;;5024128;28;20043;-80
2021/03/19 08:49:50;;;;;;;17.58;10.20;;;128.80;2022.40;;;;;;5018162;28;20071;-80
2021/03/19 08:52:36;;;;;;;22.88;11.82;;;128.80;2073.60;;;;;;5017713;28;20061;-80
2021/03/19 08:55:17;;;;;;;22.25;11.75;;;128.60;2150.40;;;;;;5016768;28;20092;-79
2021/03/19 08:57:45;;;;;;;19.75;10.77;;;128.80;2124.80;;;;;;5025803;28;20029;-80
2021/03/19 09:00:32;;;;;;;21.05;11.60;;;128.90;2073.60;;;;;;5020334;28;20105;-79
2021/03/19 09:03:04;;;;;;;;;;;128.80;2099.20;;;;;;5037871;28;20037;-80
2021/03/19 09:05:37;;;;;;;24.42;12.45;;;128.70;2150.40;;;;;;5036982;28;19905;-80
2021/03/19 09:08:27;;;;;;;21.90;12.50;;;128.70;2150.40;;;;;;5042148;28;20025;-81
2021/03/19 09:10:53;;;;;;;19.40;10.90;;;128.70;2176.00;;;;;;5022100;28;20039;-79
2021/03/19 09:13:22;;;;;;;;;;;128.40;2176.00;;;;;;5021505;28;20088;-81
2021/03/19 09:15:51;;;;;;;25.98;12.77;;;128.60;2150.40;;;;;;5036730;28;19905;-80
2021/03/19 09:18:53;;;;;;;23.23;12.20;;;128.50;2227.20;;;;;;5008646;28;20088;-79
2021/03/19 09:21:29;;;;;;;24.23;12.23;;;128.30;2201.60;;;;;;5034065;28;20104;-80
2021/03/19 09:24:24;;;;;;;18.55;10.57;;;128.20;2227.20;;;;;;5018806;28;20083;-80
2021/03/19 09:26:55;;;;;;;21.20;12.43;;;128.20;2201.60;;;;;;5017133;28;20029;-79
2021/03/19 09:29:50;;;;;;;26.95;14.75;;;128.20;2252.80;;;;;;5257753;22;20060;-79
2021/03/19 09:32:25;;;;;;;24.67;12.63;;;128.20;2252.80;;;;;;4981039;28;20054;-81
2021/03/19 09:34:50;;;;;;;16.95;10.82;;;128.40;2201.60;;;;;;4994543;28;20027;-78
2021/03/19 09:37:31;;;;;;;;;;;128.50;2201.60;;;;;;4983303;28;20041;-78
2021/03/19 09:40:33;;;;;;;19.38;10.07;;;128.50;2227.20;;;;;;4991831;28;20465;-78
2021/03/19 09:42:58;;;;;;;19.33;8.77;;;128.50;2227.20;;;;;;4992123;28;20117;-78
2021/03/19 09:45:26;;;;;;;;;;;128.50;2176.00;;;;;;4993347;28;20062;-79
2021/03/19 09:48:09;;;;;;;15.13;8.70;;;128.60;2201.60;;;;;;4993254;28;20401;-78
2021/03/19 09:50:35;;;;;;;14.93;8.38;;;128.70;2176.00;;;;;;4975518;28;20034;-80
2021/03/19 09:53:05;;;;;;;;;;;153.60;2201.60;;;;;;4977913;28;20509;-81
2021/03/19 09:55:38;;;;;;;11.63;6.78;;;153.70;2150.40;;;;;;4974500;28;19910;-79
2021/03/19 09:58:44;;;;;;;13.10;7.18;;;153.80;2150.40;;;;;;4976330;28;20026;-79
2021/03/19 10:01:26;;;;;;;11.57;6.85;;;153.90;2150.40;;;;;;4993357;28;20054;-80
2021/03/19 10:04:01;;;;;;;11.18;6.20;;;154.00;2124.80;;;;;;4977201;28;20027;-81
2021/03/19 10:06:39;;;;;;;9.45;6.22;;;154.00;2099.20;;;;;;4977417;28;20035;-84
2021/03/19 10:09:22;;;;;;;12.55;6.13;;;154.00;1996.80;;;;;;5034722;28;20038;-82
2021/03/19 10:12:12;;;;;;;12.60;7.10;;;154.10;2022.40;;;;;;5060320;28;20095;-84
2021/03/19 10:14:41;;;;;;;13.60;7.50;;;154.20;2022.40;;;;;;5029827;28;20080;-81
2021/03/19 10:17:14;;;;;;;9.98;6.43;;;154.20;2022.40;;;;;;5031607;28;20041;-81
2021/03/19 10:19:42;;;;;;;10.60;6.30;;;154.50;2048.00;;;;;;5034654;28;20083;-80
2021/03/19 10:22:09;;;;;;;9.60;5.68;;;179.40;2048.00;;;;;;5050807;28;20032;-82
2021/03/19 10:24:36;;;;;;;10.75;6.47;;;179.50;1945.60;;;;;;5034936;28;20025;-81
2021/03/19 10:27:12;;;;;;;13.93;7.20;;;179.40;1894.40;;;;;;5050290;28;20029;-82
2021/03/19 10:29:41;;;;;;;13.60;7.45;;;179.60;1920.00;;;;;;5034691;28;20121;-81
2021/03/19 10:32:11;;;;;;;13.90;7.95;;;179.60;1945.60;;;;;;5034549;28;20022;-81
2021/03/19 10:34:38;;;;;;;18.55;8.65;;;179.60;1945.60;;;;;;5034494;28;20064;-82
2021/03/19 10:37:04;;;;;;;15.63;8.45;;;179.80;1996.80;;;;;;5033309;28;20033;-82
2021/03/19 10:39:39;;;;;;;;;;;180.00;1996.80;;;;;;5033512;28;20425;-79
2021/03/19 10:42:46;;;;;;;12.13;6.90;;;180.10;1868.80;;;;;;5033269;28;19905;-81
2021/03/19 10:45:40;;;;;;;12.57;7.37;;;204.90;1920.00;;;;;;5049516;28;20033;-79
2021/03/19 10:48:16;;;;;;;11.00;6.15;;;205.00;1920.00;;;;;;5035761;28;20028;-82
2021/03/19 10:51:00;;;;;;;12.95;6.30;;;205.10;1843.20;;;;;;5051738;28;20051;-81
2021/03/19 10:53:55;;;;;;;13.38;7.70;;;205.00;1843.20;;;;;;5036123;28;20041;-80
2021/03/19 10:56:22;;;;;;;17.13;8.32;;;204.90;1817.60;;;;;;5035447;28;20030;-83
2021/03/19 10:58:53;;;;;;;10.70;6.85;;;204.80;1868.80;;;;;;5052637;28;20439;-84
2021/03/19 11:01:35;;;;;;;15.20;8.27;;;179.70;1894.40;;;;;;5052931;28;20017;-82
2021/03/19 11:04:23;;;;;;;16.35;7.30;;;180.00;1894.40;;;;;;5053385;28;20178;-83
2021/03/19 11:06:49;;;;;;;9.75;5.63;;;180.10;1843.20;;;;;;5052978;28;20056;-86
2021/03/19 11:09:16;;;;;;;;;;;204.80;1843.20;;;;;;5049777;28;20063;-86
2021/03/19 11:11:46;;;;;;;7.35;5.13;;;205.40;1715.20;;;;;;5052437;28;19916;-84
2021/03/19 11:14:21;;;;;;;9.70;5.88;;;230.40;1689.60;;;;;;5051904;28;20089;-82
2021/03/19 11:16:49;;;;;;;12.03;7.00;;;230.50;1638.40;;;;;;5053588;28;20017;-84
2021/03/19 11:19:19;;;;;;;12.02;6.88;;;231.10;1561.60;;;;;;5051930;28;20120;-84
2021/03/19 11:21:53;;;;;;;11.25;7.35;;;256.20;1561.60;;;;;;5036826;28;20032;-83
2021/03/19 11:24:29;;;;;;;12.10;7.28;;;256.50;1612.80;;;;;;5035782;28;20162;-82
2021/03/19 11:27:02;;;;;;;8.00;5.05;;;256.80;1510.40;;;;;;5032180;28;20025;-82
2021/03/19 11:29:35;;;;;;;9.77;6.60;;;256.90;1510.40;;;;;;5015642;28;20076;-83
2021/03/19 11:32:15;;;;;;;9.93;6.60;;;256.70;1459.20;;;;;;5015662;28;20028;-82
2021/03/19 11:34:51;;;;;;;10.75;7.10;;;281.90;1459.20;;;;;;5015541;28;20123;-83
2021/03/19 11:37:23;;;;;;;13.00;8.10;;;281.70;1433.60;;;;;;5015352;28;20034;-82
2021/03/19 11:40:00;;;;;;;15.00;7.65;;;282.00;1459.20;;;;;;5015896;28;20508;-79
2021/03/19 11:42:34;;;;;;;12.00;8.25;;;282.40;1356.80;;;;;;5015660;28;20025;-82
2021/03/19 11:45:07;;;;;;;12.05;7.72;;;281.80;1382.40;;;;;;5032681;28;20033;-82
2021/03/19 11:47:36;;;;;;;11.20;7.68;;;282.40;1331.20;;;;;;5034794;28;20029;-81
2021/03/19 11:50:26;;;;;;;12.73;7.57;;;282.40;1254.40;;;;;;5050173;28;20039;-80
2021/03/19 11:52:57;;;;;;;11.85;7.63;;;282.30;1228.80;;;;;;4957702;28;20086;-78
2021/03/19 11:55:34;;;;;;;12.18;7.72;;;307.40;1280.00;;;;;;4952115;29;20035;-81
2021/03/19 11:58:00;;;;;;;14.27;8.07;;;307.80;1280.00;;;;;;4952587;29;20039;-83
2021/03/19 12:00:30;;;;;;;16.30;9.60;;;307.50;1280.00;;;;;;4952432;29;20471;-80
2021/03/19 12:03:00;;;;;;;14.15;8.57;;;282.50;1177.60;;;;;;4952959;29;20055;-81
2021/03/19 12:05:26;;;;;;;14.88;8.48;;;307.40;1254.40;;;;;;4952745;29;20159;-82
2021/03/19 12:07:52;;;;;;;10.88;7.35;;;307.30;1331.20;;;;;;4952574;29;20043;-81
2021/03/19 12:10:19;;;;;;;11.10;8.23;;;307.60;1305.60;;;;;;4952383;29;20411;-81
2021/03/19 12:12:45;;;;;;;13.43;8.23;;;307.40;1305.60;;;;;;4952315;29;20031;-81
2021/03/19 12:15:16;;;;;;;13.07;8.20;;;307.80;1254.40;;;;;;4952827;29;20084;-82
2021/03/19 12:17:42;;;;;;;13.23;8.02;;;307.90;1228.80;;;;;;4952533;29;20082;-81
2021/03/19 12:20:09;;;;;;;12.65;7.63;;;307.60;1254.40;;;;;;4952906;29;20023;-80
2021/03/19 12:22:34;;;;;;;9.93;7.18;;;307.60;1280.00;;;;;;4952485;29;20043;-80
2021/03/19 12:25:00;;;;;;;10.13;7.45;;;282.40;1280.00;;;;;;4952629;29;20555;-80
2021/03/19 12:27:26;;;;;;;15.85;7.15;;;282.20;1152.00;;;;;;4952616;29;20032;-83
2021/03/19 12:29:52;;;;;;;15.27;9.73;;;282.10;1126.40;;;;;;5003946;28;20099;-84
2021/03/19 12:32:18;;;;;;;11.15;7.72;;;307.20;1254.40;;;;;;5038240;28;20090;-83
2021/03/19 12:34:46;;;;;;;14.73;8.55;;;282.30;1280.00;;;;;;5038846;28;20031;-78
2021/03/19 12:37:12;;;;;;;12.60;8.10;;;307.40;1177.60;;;;;;5054156;28;20017;-81
2021/03/19 12:39:38;;;;;;;15.95;9.82;;;307.70;1228.80;;;;;;5054936;28;20485;-80
2021/03/19 12:42:04;;;;;;;14.25;9.20;;;307.50;1254.40;;;;;;5054023;28;20033;-80
2021/03/19 12:44:30;;;;;;;14.43;9.15;;;282.50;1280.00;;;;;;5055112;28;20033;-81
2021/03/19 12:46:58;;;;;;;19.40;9.10;;;282.10;1331.20;;;;;;5055336;28;20082;-78